sensor_id;sensor_type;location;lat;lon;timestamp;temperature;humidity
35325;DHT22;35135;47.510;19.036;2022-07-15T00:01:27;28.70;38.70
35325;DHT22;35135;47.510;19.036;2022-07-15T00:04:00;28.70;38.80
35325;DHT22;35135;47.510;19.036;2022-07-15T00:06:35;28.70;39.00
35325;DHT22;35135;47.510;19.036;2022-07-15T00:09:05;28.70;39.10
35325;DHT22;35135;47.510;19.036;2022-07-15T00:11:33;28.70;39.30
35325;DHT22;35135;47.510;19.036;2022-07-15T00:14:19;28.70;39.40
35325;DHT22;35135;47.510;19.036;2022-07-15T00:16:51;28.60;39.50
35325;DHT22;35135;47.510;19.036;2022-07-15T00:19:24;28.70;39.70
35325;DHT22;35135;47.510;19.036;2022-07-15T00:22:00;28.70;39.70
35325;DHT22;35135;47.510;19.036;2022-07-15T00:24:37;28.70;39.70
35325;DHT22;35135;47.510;19.036;2022-07-15T00:27:24;28.70;40.00
35325;DHT22;35135;47.510;19.036;2022-07-15T00:29:53;28.60;40.00
35325;DHT22;35135;47.510;19.036;2022-07-15T00:32:22;28.60;40.00
35325;DHT22;35135;47.510;19.036;2022-07-15T00:34:59;28.60;40.00
35325;DHT22;35135;47.510;19.036;2022-07-15T00:37:40;28.60;40.20
35325;DHT22;35135;47.510;19.036;2022-07-15T00:40:38;28.60;40.30
35325;DHT22;35135;47.510;19.036;2022-07-15T00:43:20;28.60;40.30
35325;DHT22;35135;47.510;19.036;2022-07-15T00:46:15;28.60;40.30
35325;DHT22;35135;47.510;19.036;2022-07-15T00:48:56;28.60;40.30
35325;DHT22;35135;47.510;19.036;2022-07-15T00:51:42;28.60;40.10
35325;DHT22;35135;47.510;19.036;2022-07-15T00:54:42;28.60;40.30
35325;DHT22;35135;47.510;19.036;2022-07-15T00:57:09;28.60;40.20
35325;DHT22;35135;47.510;19.036;2022-07-15T00:59:46;28.60;40.40
35325;DHT22;35135;47.510;19.036;2022-07-15T01:02:25;28.60;40.50
35325;DHT22;35135;47.510;19.036;2022-07-15T01:05:11;28.60;40.40
35325;DHT22;35135;47.510;19.036;2022-07-15T01:08:06;28.60;40.40
35325;DHT22;35135;47.510;19.036;2022-07-15T01:10:56;28.60;40.40
35325;DHT22;35135;47.510;19.036;2022-07-15T01:13:29;28.60;40.50
35325;DHT22;35135;47.510;19.036;2022-07-15T01:16:30;28.60;40.40
35325;DHT22;35135;47.510;19.036;2022-07-15T01:19:22;28.60;40.50
35325;DHT22;35135;47.510;19.036;2022-07-15T01:22:13;28.60;40.70
35325;DHT22;35135;47.510;19.036;2022-07-15T01:24:59;28.60;40.50
35325;DHT22;35135;47.510;19.036;2022-07-15T01:27:56;28.60;40.60
35325;DHT22;35135;47.510;19.036;2022-07-15T01:30:51;28.60;40.80
35325;DHT22;35135;47.510;19.036;2022-07-15T01:34:16;28.60;40.80
35325;DHT22;35135;47.510;19.036;2022-07-15T01:37:11;28.60;41.00
35325;DHT22;35135;47.510;19.036;2022-07-15T01:39:46;28.60;41.40
35325;DHT22;35135;47.510;19.036;2022-07-15T01:45:33;28.60;41.50
35325;DHT22;35135;47.510;19.036;2022-07-15T01:48:39;28.60;41.60
35325;DHT22;35135;47.510;19.036;2022-07-15T01:52:01;28.60;41.60
35325;DHT22;35135;47.510;19.036;2022-07-15T01:54:47;28.60;41.40
35325;DHT22;35135;47.510;19.036;2022-07-15T01:57:14;28.60;41.70
35325;DHT22;35135;47.510;19.036;2022-07-15T02:00:06;28.60;41.80
35325;DHT22;35135;47.510;19.036;2022-07-15T02:02:36;28.60;41.70
35325;DHT22;35135;47.510;19.036;2022-07-15T02:05:09;28.50;41.60
35325;DHT22;35135;47.510;19.036;2022-07-15T02:07:53;28.60;41.70
35325;DHT22;35135;47.510;19.036;2022-07-15T02:10:34;28.60;41.90
35325;DHT22;35135;47.510;19.036;2022-07-15T02:13:40;28.60;42.00
35325;DHT22;35135;47.510;19.036;2022-07-15T02:16:44;28.50;41.80
35325;DHT22;35135;47.510;19.036;2022-07-15T02:19:38;28.50;41.80
35325;DHT22;35135;47.510;19.036;2022-07-15T02:22:40;28.50;41.60
35325;DHT22;35135;47.510;19.036;2022-07-15T02:25:20;28.50;41.60
35325;DHT22;35135;47.510;19.036;2022-07-15T02:28:12;28.50;41.50
35325;DHT22;35135;47.510;19.036;2022-07-15T02:31:10;28.50;41.50
35325;DHT22;35135;47.510;19.036;2022-07-15T02:34:00;28.50;41.70
35325;DHT22;35135;47.510;19.036;2022-07-15T02:36:54;28.50;41.80
35325;DHT22;35135;47.510;19.036;2022-07-15T02:39:30;28.50;41.80
35325;DHT22;35135;47.510;19.036;2022-07-15T02:42:08;28.50;41.80
35325;DHT22;35135;47.510;19.036;2022-07-15T02:44:48;28.50;41.70
35325;DHT22;35135;47.510;19.036;2022-07-15T02:47:38;28.50;41.80
35325;DHT22;35135;47.510;19.036;2022-07-15T02:50:30;28.50;41.70
35325;DHT22;35135;47.510;19.036;2022-07-15T02:53:12;28.50;41.70
35325;DHT22;35135;47.510;19.036;2022-07-15T02:56:02;28.50;41.60
35325;DHT22;35135;47.510;19.036;2022-07-15T02:59:00;28.40;41.50
35325;DHT22;35135;47.510;19.036;2022-07-15T03:01:34;28.50;41.20
35325;DHT22;35135;47.510;19.036;2022-07-15T03:04:12;28.50;41.20
35325;DHT22;35135;47.510;19.036;2022-07-15T03:07:27;28.50;41.20
35325;DHT22;35135;47.510;19.036;2022-07-15T03:10:05;28.50;41.10
35325;DHT22;35135;47.510;19.036;2022-07-15T03:12:57;28.50;40.70
35325;DHT22;35135;47.510;19.036;2022-07-15T03:15:48;28.40;40.30
35325;DHT22;35135;47.510;19.036;2022-07-15T03:18:25;28.40;40.00
35325;DHT22;35135;47.510;19.036;2022-07-15T03:21:00;28.40;40.10
35325;DHT22;35135;47.510;19.036;2022-07-15T03:24:10;28.40;40.20
35325;DHT22;35135;47.510;19.036;2022-07-15T03:26:54;28.40;40.10
35325;DHT22;35135;47.510;19.036;2022-07-15T03:29:48;28.40;40.00
35325;DHT22;35135;47.510;19.036;2022-07-15T03:32:22;28.40;39.70
35325;DHT22;35135;47.510;19.036;2022-07-15T03:35:07;28.40;39.50
35325;DHT22;35135;47.510;19.036;2022-07-15T03:37:33;28.40;39.30
35325;DHT22;35135;47.510;19.036;2022-07-15T03:40:19;28.40;39.30
35325;DHT22;35135;47.510;19.036;2022-07-15T03:43:10;28.30;39.30
35325;DHT22;35135;47.510;19.036;2022-07-15T03:46:02;28.30;39.20
35325;DHT22;35135;47.510;19.036;2022-07-15T03:48:55;28.30;39.30
35325;DHT22;35135;47.510;19.036;2022-07-15T03:51:56;28.30;39.40
35325;DHT22;35135;47.510;19.036;2022-07-15T03:54:47;28.30;39.40
35325;DHT22;35135;47.510;19.036;2022-07-15T03:57:55;28.30;39.40
35325;DHT22;35135;47.510;19.036;2022-07-15T04:00:32;28.30;39.40
35325;DHT22;35135;47.510;19.036;2022-07-15T04:03:07;28.30;39.40
35325;DHT22;35135;47.510;19.036;2022-07-15T04:05:36;28.30;39.40
35325;DHT22;35135;47.510;19.036;2022-07-15T04:08:26;28.30;39.60
35325;DHT22;35135;47.510;19.036;2022-07-15T04:11:04;28.30;39.70
35325;DHT22;35135;47.510;19.036;2022-07-15T04:13:43;28.20;39.60
35325;DHT22;35135;47.510;19.036;2022-07-15T04:16:14;28.20;39.70
35325;DHT22;35135;47.510;19.036;2022-07-15T04:18:50;28.20;39.80
35325;DHT22;35135;47.510;19.036;2022-07-15T04:21:17;28.20;39.80
35325;DHT22;35135;47.510;19.036;2022-07-15T04:23:54;28.20;39.90
35325;DHT22;35135;47.510;19.036;2022-07-15T04:26:28;28.20;39.90
35325;DHT22;35135;47.510;19.036;2022-07-15T04:29:10;28.20;40.00
35325;DHT22;35135;47.510;19.036;2022-07-15T04:31:59;28.20;40.00
35325;DHT22;35135;47.510;19.036;2022-07-15T04:34:34;28.20;40.00
35325;DHT22;35135;47.510;19.036;2022-07-15T04:37:08;28.20;40.10
35325;DHT22;35135;47.510;19.036;2022-07-15T04:39:34;28.20;40.20
35325;DHT22;35135;47.510;19.036;2022-07-15T04:42:07;28.20;40.40
35325;DHT22;35135;47.510;19.036;2022-07-15T04:44:47;28.20;40.50
35325;DHT22;35135;47.510;19.036;2022-07-15T04:47:35;28.20;40.50
35325;DHT22;35135;47.510;19.036;2022-07-15T04:50:24;28.20;40.70
35325;DHT22;35135;47.510;19.036;2022-07-15T04:53:11;28.10;40.80
35325;DHT22;35135;47.510;19.036;2022-07-15T04:55:45;28.10;41.10
35325;DHT22;35135;47.510;19.036;2022-07-15T04:58:32;28.10;41.30
35325;DHT22;35135;47.510;19.036;2022-07-15T05:01:22;28.10;41.40
35325;DHT22;35135;47.510;19.036;2022-07-15T05:04:19;28.10;41.70
35325;DHT22;35135;47.510;19.036;2022-07-15T05:06:49;28.10;41.90
35325;DHT22;35135;47.510;19.036;2022-07-15T05:09:17;28.00;42.10
35325;DHT22;35135;47.510;19.036;2022-07-15T05:12:00;28.00;42.20
35325;DHT22;35135;47.510;19.036;2022-07-15T05:14:40;28.00;42.50
35325;DHT22;35135;47.510;19.036;2022-07-15T05:17:15;28.00;42.00
35325;DHT22;35135;47.510;19.036;2022-07-15T05:19:59;28.00;42.60
35325;DHT22;35135;47.510;19.036;2022-07-15T05:22:35;28.00;42.60
35325;DHT22;35135;47.510;19.036;2022-07-15T05:25:18;28.00;42.90
35325;DHT22;35135;47.510;19.036;2022-07-15T05:28:13;27.90;42.90
35325;DHT22;35135;47.510;19.036;2022-07-15T05:30:49;27.90;42.80
35325;DHT22;35135;47.510;19.036;2022-07-15T05:33:17;27.90;43.30
35325;DHT22;35135;47.510;19.036;2022-07-15T05:36:11;27.90;43.40
35325;DHT22;35135;47.510;19.036;2022-07-15T05:38:43;27.90;43.30
35325;DHT22;35135;47.510;19.036;2022-07-15T05:41:11;27.90;43.60
35325;DHT22;35135;47.510;19.036;2022-07-15T05:44:08;27.80;43.70
35325;DHT22;35135;47.510;19.036;2022-07-15T05:46:48;27.80;43.60
35325;DHT22;35135;47.510;19.036;2022-07-15T05:49:17;27.80;44.00
35325;DHT22;35135;47.510;19.036;2022-07-15T05:51:46;27.80;44.10
35325;DHT22;35135;47.510;19.036;2022-07-15T05:54:22;27.80;44.30
35325;DHT22;35135;47.510;19.036;2022-07-15T05:56:51;27.80;44.20
35325;DHT22;35135;47.510;19.036;2022-07-15T05:59:18;27.80;44.10
35325;DHT22;35135;47.510;19.036;2022-07-15T06:01:57;27.80;44.40
35325;DHT22;35135;47.510;19.036;2022-07-15T06:04:34;27.80;44.60
35325;DHT22;35135;47.510;19.036;2022-07-15T06:07:12;27.80;44.40
35325;DHT22;35135;47.510;19.036;2022-07-15T06:09:48;27.80;44.60
35325;DHT22;35135;47.510;19.036;2022-07-15T06:12:40;27.80;44.90
35325;DHT22;35135;47.510;19.036;2022-07-15T06:15:17;27.70;44.70
35325;DHT22;35135;47.510;19.036;2022-07-15T06:18:10;27.70;44.90
35325;DHT22;35135;47.510;19.036;2022-07-15T06:20:44;27.70;44.90
35325;DHT22;35135;47.510;19.036;2022-07-15T06:23:34;27.70;45.00
35325;DHT22;35135;47.510;19.036;2022-07-15T06:26:09;27.70;45.00
35325;DHT22;35135;47.510;19.036;2022-07-15T06:28:49;27.70;45.80
35325;DHT22;35135;47.510;19.036;2022-07-15T06:31:22;27.60;45.80
35325;DHT22;35135;47.510;19.036;2022-07-15T06:33:58;27.60;45.90
35325;DHT22;35135;47.510;19.036;2022-07-15T06:36:45;27.50;46.10
35325;DHT22;35135;47.510;19.036;2022-07-15T06:39:17;27.50;46.20
35325;DHT22;35135;47.510;19.036;2022-07-15T06:41:49;27.50;46.20
35325;DHT22;35135;47.510;19.036;2022-07-15T06:44:30;27.50;46.20
35325;DHT22;35135;47.510;19.036;2022-07-15T06:46:59;27.50;46.70
35325;DHT22;35135;47.510;19.036;2022-07-15T06:49:31;27.50;46.20
35325;DHT22;35135;47.510;19.036;2022-07-15T06:52:02;27.50;46.00
35325;DHT22;35135;47.510;19.036;2022-07-15T06:54:32;27.50;46.40
35325;DHT22;35135;47.510;19.036;2022-07-15T06:57:07;27.50;46.20
35325;DHT22;35135;47.510;19.036;2022-07-15T06:59:37;27.50;46.10
35325;DHT22;35135;47.510;19.036;2022-07-15T07:02:11;27.50;46.20
35325;DHT22;35135;47.510;19.036;2022-07-15T07:04:39;27.50;46.60
35325;DHT22;35135;47.510;19.036;2022-07-15T07:07:09;27.50;46.50
35325;DHT22;35135;47.510;19.036;2022-07-15T07:09:38;27.50;46.40
35325;DHT22;35135;47.510;19.036;2022-07-15T07:12:11;27.50;46.50
35325;DHT22;35135;47.510;19.036;2022-07-15T07:14:43;27.50;46.40
35325;DHT22;35135;47.510;19.036;2022-07-15T07:17:10;27.50;46.50
35325;DHT22;35135;47.510;19.036;2022-07-15T07:19:44;27.50;46.60
35325;DHT22;35135;47.510;19.036;2022-07-15T07:22:11;27.50;46.40
35325;DHT22;35135;47.510;19.036;2022-07-15T07:24:40;27.50;46.70
35325;DHT22;35135;47.510;19.036;2022-07-15T07:27:09;27.50;46.80
35325;DHT22;35135;47.510;19.036;2022-07-15T07:29:37;27.50;46.70
35325;DHT22;35135;47.510;19.036;2022-07-15T07:32:07;27.50;46.60
35325;DHT22;35135;47.510;19.036;2022-07-15T07:34:36;27.50;46.40
35325;DHT22;35135;47.510;19.036;2022-07-15T07:37:05;27.50;46.40
35325;DHT22;35135;47.510;19.036;2022-07-15T07:39:32;27.50;46.60
35325;DHT22;35135;47.510;19.036;2022-07-15T07:42:07;27.50;46.60
35325;DHT22;35135;47.510;19.036;2022-07-15T07:44:35;27.50;46.70
35325;DHT22;35135;47.510;19.036;2022-07-15T07:47:04;27.50;46.90
35325;DHT22;35135;47.510;19.036;2022-07-15T07:49:33;27.40;46.50
35325;DHT22;35135;47.510;19.036;2022-07-15T07:52:03;27.50;46.40
35325;DHT22;35135;47.510;19.036;2022-07-15T07:54:33;27.50;46.60
35325;DHT22;35135;47.510;19.036;2022-07-15T07:57:10;27.40;46.50
35325;DHT22;35135;47.510;19.036;2022-07-15T07:59:43;27.40;46.60
35325;DHT22;35135;47.510;19.036;2022-07-15T08:02:26;27.40;46.60
35325;DHT22;35135;47.510;19.036;2022-07-15T08:05:01;27.40;46.50
35325;DHT22;35135;47.510;19.036;2022-07-15T08:07:35;27.40;46.40
35325;DHT22;35135;47.510;19.036;2022-07-15T08:10:03;27.40;46.40
35325;DHT22;35135;47.510;19.036;2022-07-15T08:12:40;27.40;47.10
35325;DHT22;35135;47.510;19.036;2022-07-15T08:15:17;27.40;46.50
35325;DHT22;35135;47.510;19.036;2022-07-15T08:18:12;27.40;46.70
35325;DHT22;35135;47.510;19.036;2022-07-15T08:20:47;27.40;46.40
35325;DHT22;35135;47.510;19.036;2022-07-15T08:23:25;27.40;46.50
35325;DHT22;35135;47.510;19.036;2022-07-15T08:25:53;27.40;46.50
35325;DHT22;35135;47.510;19.036;2022-07-15T08:28:20;27.40;46.50
35325;DHT22;35135;47.510;19.036;2022-07-15T08:30:54;27.40;46.50
35325;DHT22;35135;47.510;19.036;2022-07-15T08:33:28;27.40;46.80
35325;DHT22;35135;47.510;19.036;2022-07-15T08:35:56;27.40;47.00
35325;DHT22;35135;47.510;19.036;2022-07-15T08:38:25;27.40;46.70
35325;DHT22;35135;47.510;19.036;2022-07-15T08:40:56;27.50;46.90
35325;DHT22;35135;47.510;19.036;2022-07-15T08:43:55;27.40;47.00
35325;DHT22;35135;47.510;19.036;2022-07-15T08:46:39;27.40;46.70
35325;DHT22;35135;47.510;19.036;2022-07-15T08:49:35;27.40;47.00
35325;DHT22;35135;47.510;19.036;2022-07-15T08:52:25;27.50;46.80
35325;DHT22;35135;47.510;19.036;2022-07-15T08:55:05;27.50;47.10
35325;DHT22;35135;47.510;19.036;2022-07-15T08:57:36;27.50;47.10
35325;DHT22;35135;47.510;19.036;2022-07-15T09:00:24;27.40;47.20
35325;DHT22;35135;47.510;19.036;2022-07-15T09:03:01;27.40;47.20
35325;DHT22;35135;47.510;19.036;2022-07-15T09:05:36;27.40;47.30
35325;DHT22;35135;47.510;19.036;2022-07-15T09:08:10;27.40;47.10
35325;DHT22;35135;47.510;19.036;2022-07-15T09:10:53;27.40;47.60
35325;DHT22;35135;47.510;19.036;2022-07-15T09:13:39;27.50;47.70
35325;DHT22;35135;47.510;19.036;2022-07-15T09:16:10;27.40;47.20
35325;DHT22;35135;47.510;19.036;2022-07-15T09:18:45;27.40;47.30
35325;DHT22;35135;47.510;19.036;2022-07-15T09:21:22;27.40;47.60
35325;DHT22;35135;47.510;19.036;2022-07-15T09:24:20;27.40;47.70
35325;DHT22;35135;47.510;19.036;2022-07-15T09:27:28;27.40;47.30
35325;DHT22;35135;47.510;19.036;2022-07-15T09:34:00;27.40;47.10
35325;DHT22;35135;47.510;19.036;2022-07-15T09:36:49;27.50;47.20
35325;DHT22;35135;47.510;19.036;2022-07-15T09:39:59;27.40;47.30
35325;DHT22;35135;47.510;19.036;2022-07-15T09:42:32;27.40;47.00
35325;DHT22;35135;47.510;19.036;2022-07-15T09:45:20;27.40;47.20
35325;DHT22;35135;47.510;19.036;2022-07-15T09:48:10;27.40;46.90
35325;DHT22;35135;47.510;19.036;2022-07-15T09:50:49;27.40;47.00
35325;DHT22;35135;47.510;19.036;2022-07-15T09:53:19;27.50;47.00
35325;DHT22;35135;47.510;19.036;2022-07-15T09:55:52;27.50;46.90
35325;DHT22;35135;47.510;19.036;2022-07-15T09:58:21;27.50;46.90
35325;DHT22;35135;47.510;19.036;2022-07-15T10:01:00;27.50;46.70
35325;DHT22;35135;47.510;19.036;2022-07-15T10:03:42;27.50;46.60
35325;DHT22;35135;47.510;19.036;2022-07-15T10:06:13;27.50;46.40
35325;DHT22;35135;47.510;19.036;2022-07-15T10:08:53;27.50;46.40
35325;DHT22;35135;47.510;19.036;2022-07-15T10:11:23;27.50;46.30
35325;DHT22;35135;47.510;19.036;2022-07-15T10:14:51;27.50;46.30
35325;DHT22;35135;47.510;19.036;2022-07-15T10:20:41;27.50;46.60
35325;DHT22;35135;47.510;19.036;2022-07-15T10:29:19;27.50;46.60
35325;DHT22;35135;47.510;19.036;2022-07-15T10:31:59;27.50;46.20
35325;DHT22;35135;47.510;19.036;2022-07-15T10:34:37;27.50;45.70
35325;DHT22;35135;47.510;19.036;2022-07-15T10:37:10;27.50;45.80
35325;DHT22;35135;47.510;19.036;2022-07-15T10:39:58;27.50;46.00
35325;DHT22;35135;47.510;19.036;2022-07-15T10:43:01;27.50;45.70
35325;DHT22;35135;47.510;19.036;2022-07-15T10:45:33;27.50;45.70
35325;DHT22;35135;47.510;19.036;2022-07-15T10:48:32;27.50;45.80
35325;DHT22;35135;47.510;19.036;2022-07-15T10:51:45;27.50;45.00
35325;DHT22;35135;47.510;19.036;2022-07-15T10:55:07;27.50;44.30
35325;DHT22;35135;47.510;19.036;2022-07-15T11:03:21;27.60;43.00
35325;DHT22;35135;47.510;19.036;2022-07-15T11:06:03;27.50;42.20
35325;DHT22;35135;47.510;19.036;2022-07-15T11:08:50;27.60;41.40
35325;DHT22;35135;47.510;19.036;2022-07-15T11:14:54;27.60;40.80
35325;DHT22;35135;47.510;19.036;2022-07-15T11:17:44;27.60;40.30
35325;DHT22;35135;47.510;19.036;2022-07-15T11:20:22;27.60;39.00
35325;DHT22;35135;47.510;19.036;2022-07-15T11:23:16;27.50;39.00
35325;DHT22;35135;47.510;19.036;2022-07-15T11:26:17;27.50;38.60
35325;DHT22;35135;47.510;19.036;2022-07-15T11:28:57;27.50;38.10
35325;DHT22;35135;47.510;19.036;2022-07-15T11:31:28;27.50;38.60
35325;DHT22;35135;47.510;19.036;2022-07-15T11:34:11;27.50;37.90
35325;DHT22;35135;47.510;19.036;2022-07-15T11:37:18;27.50;37.40
35325;DHT22;35135;47.510;19.036;2022-07-15T11:40:43;27.50;37.00
35325;DHT22;35135;47.510;19.036;2022-07-15T11:43:43;27.50;36.70
35325;DHT22;35135;47.510;19.036;2022-07-15T11:46:31;27.50;36.50
35325;DHT22;35135;47.510;19.036;2022-07-15T11:49:01;27.50;35.50
35325;DHT22;35135;47.510;19.036;2022-07-15T11:51:38;27.50;34.90
35325;DHT22;35135;47.510;19.036;2022-07-15T11:54:13;27.50;35.00
35325;DHT22;35135;47.510;19.036;2022-07-15T11:57:10;27.50;34.60
35325;DHT22;35135;47.510;19.036;2022-07-15T11:59:58;27.50;34.70
35325;DHT22;35135;47.510;19.036;2022-07-15T12:02:26;27.50;34.00
35325;DHT22;35135;47.510;19.036;2022-07-15T12:05:14;27.50;33.90
35325;DHT22;35135;47.510;19.036;2022-07-15T12:07:51;27.50;33.90
35325;DHT22;35135;47.510;19.036;2022-07-15T12:10:36;27.40;34.20
35325;DHT22;35135;47.510;19.036;2022-07-15T12:13:24;27.50;33.90
35325;DHT22;35135;47.510;19.036;2022-07-15T12:16:19;27.40;33.40
35325;DHT22;35135;47.510;19.036;2022-07-15T12:19:29;27.40;33.70
35325;DHT22;35135;47.510;19.036;2022-07-15T12:22:08;27.40;33.90
35325;DHT22;35135;47.510;19.036;2022-07-15T12:24:48;27.40;33.80
35325;DHT22;35135;47.510;19.036;2022-07-15T12:27:30;27.40;33.60
35325;DHT22;35135;47.510;19.036;2022-07-15T12:30:17;27.50;33.50
35325;DHT22;35135;47.510;19.036;2022-07-15T12:32:52;27.50;33.50
35325;DHT22;35135;47.510;19.036;2022-07-15T12:35:42;27.40;33.30
35325;DHT22;35135;47.510;19.036;2022-07-15T12:38:29;27.50;33.60
35325;DHT22;35135;47.510;19.036;2022-07-15T12:41:36;27.40;33.70
35325;DHT22;35135;47.510;19.036;2022-07-15T12:44:06;27.40;33.70
35325;DHT22;35135;47.510;19.036;2022-07-15T12:46:57;27.40;33.40
35325;DHT22;35135;47.510;19.036;2022-07-15T12:50:03;27.40;34.00
35325;DHT22;35135;47.510;19.036;2022-07-15T12:52:56;27.40;34.10
35325;DHT22;35135;47.510;19.036;2022-07-15T12:55:39;27.40;34.00
35325;DHT22;35135;47.510;19.036;2022-07-15T12:58:30;27.40;34.00
35325;DHT22;35135;47.510;19.036;2022-07-15T13:01:20;27.40;33.60
35325;DHT22;35135;47.510;19.036;2022-07-15T13:03:55;27.40;33.50
35325;DHT22;35135;47.510;19.036;2022-07-15T13:06:24;27.40;33.00
35325;DHT22;35135;47.510;19.036;2022-07-15T13:08:59;27.40;33.70
35325;DHT22;35135;47.510;19.036;2022-07-15T13:11:34;27.40;33.30
35325;DHT22;35135;47.510;19.036;2022-07-15T13:14:23;27.40;33.40
35325;DHT22;35135;47.510;19.036;2022-07-15T13:17:04;27.40;33.40
35325;DHT22;35135;47.510;19.036;2022-07-15T13:19:42;27.40;32.40
35325;DHT22;35135;47.510;19.036;2022-07-15T13:22:29;27.40;32.40
35325;DHT22;35135;47.510;19.036;2022-07-15T13:25:09;27.40;32.90
35325;DHT22;35135;47.510;19.036;2022-07-15T13:27:45;27.40;33.00
35325;DHT22;35135;47.510;19.036;2022-07-15T13:30:36;27.40;32.60
35325;DHT22;35135;47.510;19.036;2022-07-15T13:33:08;27.40;32.20
35325;DHT22;35135;47.510;19.036;2022-07-15T13:35:38;27.40;32.10
35325;DHT22;35135;47.510;19.036;2022-07-15T13:38:12;27.40;31.60
35325;DHT22;35135;47.510;19.036;2022-07-15T13:40:50;27.40;31.60
35325;DHT22;35135;47.510;19.036;2022-07-15T13:43:35;27.40;31.40
35325;DHT22;35135;47.510;19.036;2022-07-15T13:46:06;27.40;31.80
35325;DHT22;35135;47.510;19.036;2022-07-15T13:48:41;27.40;31.40
35325;DHT22;35135;47.510;19.036;2022-07-15T13:51:32;27.40;31.30
35325;DHT22;35135;47.510;19.036;2022-07-15T13:54:14;27.40;31.60
35325;DHT22;35135;47.510;19.036;2022-07-15T13:56:56;27.40;31.60
35325;DHT22;35135;47.510;19.036;2022-07-15T13:59:33;27.40;31.80
35325;DHT22;35135;47.510;19.036;2022-07-15T14:02:02;27.40;31.50
35325;DHT22;35135;47.510;19.036;2022-07-15T14:04:40;27.40;31.00
35325;DHT22;35135;47.510;19.036;2022-07-15T14:07:30;27.40;30.90
35325;DHT22;35135;47.510;19.036;2022-07-15T14:09:59;27.40;31.50
35325;DHT22;35135;47.510;19.036;2022-07-15T14:12:30;27.40;30.50
35325;DHT22;35135;47.510;19.036;2022-07-15T14:15:05;27.40;31.10
35325;DHT22;35135;47.510;19.036;2022-07-15T14:17:39;27.40;30.70
35325;DHT22;35135;47.510;19.036;2022-07-15T14:20:09;27.40;31.10
35325;DHT22;35135;47.510;19.036;2022-07-15T14:22:36;27.40;30.80
35325;DHT22;35135;47.510;19.036;2022-07-15T14:25:23;27.40;31.20
35325;DHT22;35135;47.510;19.036;2022-07-15T14:27:50;27.40;30.50
35325;DHT22;35135;47.510;19.036;2022-07-15T14:30:18;27.40;30.90
35325;DHT22;35135;47.510;19.036;2022-07-15T14:32:54;27.40;31.00
35325;DHT22;35135;47.510;19.036;2022-07-15T14:35:21;27.40;30.90
35325;DHT22;35135;47.510;19.036;2022-07-15T14:37:51;27.40;30.70
35325;DHT22;35135;47.510;19.036;2022-07-15T14:40:37;27.40;30.80
35325;DHT22;35135;47.510;19.036;2022-07-15T14:43:24;27.40;30.90
35325;DHT22;35135;47.510;19.036;2022-07-15T14:46:05;27.40;30.90
35325;DHT22;35135;47.510;19.036;2022-07-15T14:48:34;27.40;31.00
35325;DHT22;35135;47.510;19.036;2022-07-15T14:51:38;27.40;31.40
35325;DHT22;35135;47.510;19.036;2022-07-15T14:54:17;27.40;31.20
35325;DHT22;35135;47.510;19.036;2022-07-15T14:56:44;27.40;30.50
35325;DHT22;35135;47.510;19.036;2022-07-15T14:59:13;27.40;30.70
35325;DHT22;35135;47.510;19.036;2022-07-15T15:02:05;27.40;30.80
35325;DHT22;35135;47.510;19.036;2022-07-15T15:04:31;27.40;30.90
35325;DHT22;35135;47.510;19.036;2022-07-15T15:07:08;27.40;30.50
35325;DHT22;35135;47.510;19.036;2022-07-15T15:09:44;27.40;31.10
35325;DHT22;35135;47.510;19.036;2022-07-15T15:12:12;27.40;30.90
35325;DHT22;35135;47.510;19.036;2022-07-15T15:14:47;27.40;30.50
35325;DHT22;35135;47.510;19.036;2022-07-15T15:17:26;27.40;29.70
35325;DHT22;35135;47.510;19.036;2022-07-15T15:20:18;27.40;30.20
35325;DHT22;35135;47.510;19.036;2022-07-15T15:22:44;27.40;30.00
35325;DHT22;35135;47.510;19.036;2022-07-15T15:25:16;27.40;30.60
35325;DHT22;35135;47.510;19.036;2022-07-15T15:28:19;27.40;30.00
35325;DHT22;35135;47.510;19.036;2022-07-15T15:31:26;27.40;30.10
35325;DHT22;35135;47.510;19.036;2022-07-15T15:34:08;27.40;30.30
35325;DHT22;35135;47.510;19.036;2022-07-15T15:36:57;27.40;30.40
35325;DHT22;35135;47.510;19.036;2022-07-15T15:39:50;27.40;30.50
35325;DHT22;35135;47.510;19.036;2022-07-15T15:42:25;27.40;30.90
35325;DHT22;35135;47.510;19.036;2022-07-15T15:45:00;27.40;31.10
35325;DHT22;35135;47.510;19.036;2022-07-15T15:47:44;27.40;31.30
35325;DHT22;35135;47.510;19.036;2022-07-15T15:50:14;27.40;31.50
35325;DHT22;35135;47.510;19.036;2022-07-15T15:55:54;27.30;31.80
35325;DHT22;35135;47.510;19.036;2022-07-15T15:58:24;27.30;31.70
35325;DHT22;35135;47.510;19.036;2022-07-15T16:00:57;27.40;32.00
35325;DHT22;35135;47.510;19.036;2022-07-15T16:03:39;27.40;31.90
35325;DHT22;35135;47.510;19.036;2022-07-15T16:06:11;27.30;32.20
35325;DHT22;35135;47.510;19.036;2022-07-15T16:08:41;27.40;31.80
35325;DHT22;35135;47.510;19.036;2022-07-15T16:11:20;27.40;31.80
35325;DHT22;35135;47.510;19.036;2022-07-15T16:13:57;27.30;31.70
35325;DHT22;35135;47.510;19.036;2022-07-15T16:16:34;27.40;31.60
35325;DHT22;35135;47.510;19.036;2022-07-15T16:19:07;27.40;31.70
35325;DHT22;35135;47.510;19.036;2022-07-15T16:21:57;27.40;31.50
35325;DHT22;35135;47.510;19.036;2022-07-15T16:24:44;27.40;32.30
35325;DHT22;35135;47.510;19.036;2022-07-15T16:27:11;27.40;32.60
35325;DHT22;35135;47.510;19.036;2022-07-15T16:29:38;27.40;31.90
35325;DHT22;35135;47.510;19.036;2022-07-15T16:32:24;27.40;32.20
35325;DHT22;35135;47.510;19.036;2022-07-15T16:35:05;27.40;32.20
35325;DHT22;35135;47.510;19.036;2022-07-15T16:37:44;27.40;32.40
35325;DHT22;35135;47.510;19.036;2022-07-15T16:40:17;27.40;32.60
35325;DHT22;35135;47.510;19.036;2022-07-15T16:42:44;27.40;32.50
35325;DHT22;35135;47.510;19.036;2022-07-15T16:46:01;27.40;32.30
35325;DHT22;35135;47.510;19.036;2022-07-15T16:48:32;27.40;32.50
35325;DHT22;35135;47.510;19.036;2022-07-15T16:51:09;27.40;32.20
35325;DHT22;35135;47.510;19.036;2022-07-15T16:53:35;27.40;32.40
35325;DHT22;35135;47.510;19.036;2022-07-15T16:56:00;27.40;32.40
35325;DHT22;35135;47.510;19.036;2022-07-15T16:58:27;27.40;32.50
35325;DHT22;35135;47.510;19.036;2022-07-15T17:01:03;27.40;32.40
35325;DHT22;35135;47.510;19.036;2022-07-15T17:03:32;27.40;32.80
35325;DHT22;35135;47.510;19.036;2022-07-15T17:05:58;27.40;32.60
35325;DHT22;35135;47.510;19.036;2022-07-15T17:08:25;27.40;32.80